Time;durP1;ratioP1;P1;durP2;ratioP2;P2;SDS_P1;SDS_P2;PMS_P1;PMS_P2;Temp;Humidity;BMP_temperature;BMP_pressure;BME280_temperature;BME280_humidity;BME280_pressure;Samples;Min_cycle;Max_cycle;Signal;HPM_P1;HPM_P2
2021/04/25 00:00:21;;;;;;;7.07;2.38;;;3.70;98.90;;;;;;4960954;29;20427;-67
2021/04/25 00:02:49;;;;;;;13.00;2.53;;;3.60;99.30;;;;;;4960923;29;20051;-67
2021/04/25 00:05:19;;;;;;;13.13;3.10;;;3.60;99.50;;;;;;4944191;29;20328;-67
2021/04/25 00:07:46;;;;;;;15.20;4.38;;;3.60;99.90;;;;;;4961149;29;20023;-67
2021/04/25 00:10:16;;;;;;;13.32;3.00;;;3.50;99.90;;;;;;4960346;29;20074;-67
2021/04/25 00:12:44;;;;;;;8.77;3.08;;;3.50;99.90;;;;;;4960557;29;20027;-67
2021/04/25 00:15:19;;;;;;;16.02;2.88;;;3.50;99.90;;;;;;4960896;29;20027;-67
2021/04/25 00:17:47;;;;;;;10.90;2.78;;;3.40;99.90;;;;;;4960696;29;20110;-67
2021/04/25 00:20:15;;;;;;;9.95;3.17;;;3.40;99.90;;;;;;4960105;28;20031;-67
2021/04/25 00:22:44;;;;;;;10.90;3.00;;;3.30;99.90;;;;;;4960747;29;20028;-67
2021/04/25 00:25:13;;;;;;;11.65;3.33;;;3.30;99.90;;;;;;4944082;29;20024;-67
2021/04/25 00:27:41;;;;;;;8.85;3.40;;;3.20;99.90;;;;;;4960941;29;20020;-67
2021/04/25 00:30:12;;;;;;;10.07;2.50;;;3.10;99.90;;;;;;4960856;29;20416;-67
2021/04/25 00:32:39;;;;;;;6.10;2.55;;;3.00;99.90;;;;;;4960723;29;20030;-67
2021/04/25 00:35:08;;;;;;;7.55;2.30;;;2.90;99.90;;;;;;4961184;28;20410;-67
2021/04/25 00:37:35;;;;;;;13.05;2.70;;;2.80;99.90;;;;;;4961237;29;20034;-67
2021/04/25 00:40:06;;;;;;;10.23;3.10;;;2.80;99.90;;;;;;4960335;29;20016;-67
2021/04/25 00:42:33;;;;;;;10.77;3.95;;;2.70;99.90;;;;;;4960261;29;20110;-67
2021/04/25 00:45:04;;;;;;;7.43;2.45;;;2.60;99.90;;;;;;4959689;29;20030;-67
2021/04/25 00:47:32;;;;;;;13.32;3.38;;;2.60;99.90;;;;;;4960192;29;20027;-67
2021/04/25 00:50:00;;;;;;;10.98;3.53;;;2.50;99.90;;;;;;4959721;28;20029;-67
2021/04/25 00:52:27;;;;;;;8.75;3.03;;;2.50;99.90;;;;;;4958818;28;20078;-67
2021/04/25 00:54:56;;;;;;;6.63;2.40;;;2.40;99.90;;;;;;4959809;29;20023;-67
2021/04/25 00:57:24;;;;;;;14.00;4.03;;;2.30;99.90;;;;;;4942251;29;20420;-67
2021/04/25 00:59:54;;;;;;;9.82;2.53;;;2.30;99.90;;;;;;4959631;29;20032;-67
2021/04/25 01:02:22;;;;;;;9.77;2.63;;;2.30;99.90;;;;;;4959960;29;20440;-67
2021/04/25 01:04:50;;;;;;;6.88;2.45;;;2.20;99.90;;;;;;4943960;29;20023;-67
2021/04/25 01:07:19;;;;;;;12.82;2.83;;;2.10;99.90;;;;;;4960092;29;20023;-67
2021/04/25 01:09:46;;;;;;;11.55;2.28;;;2.10;99.90;;;;;;4960318;29;20023;-67
2021/04/25 01:12:14;;;;;;;9.10;2.50;;;2.00;99.90;;;;;;4960066;29;20027;-67
2021/04/25 01:14:42;;;;;;;7.07;2.42;;;2.00;99.90;;;;;;4960112;29;20051;-67
2021/04/25 01:17:10;;;;;;;6.15;2.53;;;1.90;99.90;;;;;;4960485;29;20046;-67
2021/04/25 01:19:37;;;;;;;10.25;2.38;;;1.80;99.90;;;;;;4960147;29;20023;-67
2021/04/25 01:22:06;;;;;;;7.72;3.00;;;1.70;99.90;;;;;;4959091;28;20063;-67
2021/04/25 01:24:34;;;;;;;4.88;2.25;;;1.70;99.90;;;;;;4958966;29;20027;-67
2021/04/25 01:27:03;;;;;;;9.73;2.92;;;1.60;99.90;;;;;;4958942;29;20054;-67
2021/04/25 01:29:31;;;;;;;6.80;2.38;;;1.50;99.90;;;;;;4959628;29;20035;-67
2021/04/25 01:31:59;;;;;;;7.90;2.45;;;1.40;99.90;;;;;;4959314;29;20055;-67
2021/04/25 01:34:27;;;;;;;5.13;2.08;;;1.40;99.90;;;;;;4959383;29;20315;-67
2021/04/25 01:36:57;;;;;;;6.15;2.33;;;1.30;99.90;;;;;;4958812;28;20023;-67
2021/04/25 01:39:28;;;;;;;8.57;3.60;;;1.30;99.90;;;;;;4958893;29;20021;-67
2021/04/25 01:41:57;;;;;;;8.82;2.38;;;1.20;99.90;;;;;;4959237;29;20033;-67
2021/04/25 01:44:24;;;;;;;12.40;2.58;;;1.10;99.90;;;;;;4959515;29;20431;-67
2021/04/25 01:46:52;;;;;;;7.20;2.83;;;1.10;99.90;;;;;;4942534;29;20035;-67
2021/04/25 01:49:19;;;;;;;7.13;2.60;;;1.10;99.90;;;;;;4959480;29;20369;-67
2021/04/25 01:51:48;;;;;;;5.22;2.33;;;1.00;99.90;;;;;;4959340;28;20039;-67
2021/04/25 01:54:17;;;;;;;7.60;2.72;;;1.00;99.90;;;;;;4959277;29;20327;-67
2021/04/25 01:56:45;;;;;;;5.13;2.03;;;0.90;99.90;;;;;;4959519;29;20046;-67
2021/04/25 01:59:12;;;;;;;6.38;2.45;;;0.90;99.90;;;;;;4959216;29;20051;-67
2021/04/25 02:01:40;;;;;;;10.63;3.05;;;0.80;99.90;;;;;;4958921;29;20483;-67
2021/04/25 02:04:08;;;;;;;6.25;2.67;;;0.80;99.90;;;;;;4941336;29;20122;-67
2021/04/25 02:06:42;;;;;;;7.30;2.65;;;0.70;99.90;;;;;;4958468;28;20027;-67
2021/04/25 02:09:11;;;;;;;8.27;2.58;;;0.60;99.90;;;;;;4958351;29;20431;-67
2021/04/25 02:11:39;;;;;;;7.18;2.50;;;0.50;99.90;;;;;;4958492;29;20355;-67
2021/04/25 02:14:08;;;;;;;9.27;2.53;;;0.50;99.90;;;;;;4958655;29;20063;-67
2021/04/25 02:16:37;;;;;;;16.88;3.72;;;0.40;99.90;;;;;;4958549;29;20106;-67
2021/04/25 02:19:05;;;;;;;9.07;3.35;;;0.40;99.90;;;;;;4958264;29;20031;-67
2021/04/25 02:21:33;;;;;;;11.38;2.17;;;0.30;99.90;;;;;;4958730;28;20289;-67
2021/04/25 02:24:01;;;;;;;8.90;2.63;;;0.30;99.90;;;;;;4959458;29;20058;-67
2021/04/25 02:26:29;;;;;;;6.88;2.25;;;0.20;99.90;;;;;;4959069;29;20019;-67
2021/04/25 02:28:57;;;;;;;5.82;2.35;;;0.20;99.90;;;;;;4959145;29;20027;-67
2021/04/25 02:31:25;;;;;;;8.85;2.08;;;0.20;99.90;;;;;;4958983;29;20031;-67
2021/04/25 02:33:52;;;;;;;6.07;2.55;;;0.10;99.90;;;;;;4959237;29;20127;-67
2021/04/25 02:36:20;;;;;;;10.77;2.60;;;0.10;99.90;;;;;;4959157;28;20372;-67
2021/04/25 02:38:48;;;;;;;6.88;2.67;;;0.10;99.90;;;;;;4959103;29;20031;-67
2021/04/25 02:41:17;;;;;;;6.95;2.25;;;0.10;99.90;;;;;;4958871;29;20086;-67
2021/04/25 02:43:45;;;;;;;6.82;2.38;;;0.00;99.90;;;;;;4941408;29;20031;-67
2021/04/25 02:46:13;;;;;;;9.32;2.72;;;0.00;99.90;;;;;;4958036;29;20031;-67
2021/04/25 02:48:41;;;;;;;6.22;2.13;;;-0.10;99.90;;;;;;4958086;29;20078;-67
2021/04/25 02:51:08;;;;;;;9.38;2.10;;;-0.10;99.90;;;;;;4957810;28;20032;-67
2021/04/25 02:53:36;;;;;;;10.00;2.38;;;-0.20;99.90;;;;;;4958642;29;20019;-67
2021/04/25 02:56:04;;;;;;;13.82;2.47;;;-0.20;99.90;;;;;;4940981;29;20393;-67
2021/04/25 02:58:31;;;;;;;7.50;2.33;;;-0.20;99.90;;;;;;4940678;29;20130;-67
2021/04/25 03:00:59;;;;;;;11.25;3.58;;;-0.20;99.90;;;;;;4958159;29;20015;-67
2021/04/25 03:03:27;;;;;;;6.65;2.50;;;-0.20;99.90;;;;;;4940812;29;20020;-67
2021/04/25 03:05:56;;;;;;;10.15;2.45;;;-0.30;99.90;;;;;;4959035;28;20409;-67
2021/04/25 03:08:23;;;;;;;6.05;1.98;;;-0.30;99.90;;;;;;4959262;29;20051;-67
2021/04/25 03:10:51;;;;;;;11.00;3.08;;;-0.30;99.90;;;;;;4959222;29;20432;-67
2021/04/25 03:13:19;;;;;;;9.35;2.50;;;-0.30;99.90;;;;;;4958755;29;20054;-67
2021/04/25 03:15:46;;;;;;;5.78;2.20;;;-0.30;99.90;;;;;;4960266;28;20102;-67
2021/04/25 03:18:14;;;;;;;9.23;2.42;;;-0.40;99.90;;;;;;4962638;29;20031;-67
2021/04/25 03:20:42;;;;;;;7.93;2.45;;;-0.40;99.90;;;;;;4962147;28;20027;-67
2021/04/25 03:23:10;;;;;;;7.70;2.15;;;-0.40;99.90;;;;;;4962074;29;20023;-67
2021/04/25 03:25:37;;;;;;;7.32;2.25;;;-0.40;99.90;;;;;;4961731;29;20024;-67
2021/04/25 03:28:05;;;;;;;6.78;2.40;;;-0.40;99.90;;;;;;4961168;29;20027;-67
2021/04/25 03:30:33;;;;;;;6.78;2.20;;;-0.50;99.90;;;;;;4944049;29;20340;-67
2021/04/25 03:33:01;;;;;;;9.57;2.33;;;-0.50;99.90;;;;;;4961849;29;20300;-67
2021/04/25 03:35:29;;;;;;;7.00;2.17;;;-0.60;99.90;;;;;;4960936;28;20107;-67
2021/04/25 03:37:57;;;;;;;11.18;2.45;;;-0.60;99.90;;;;;;4960970;29;20055;-67
2021/04/25 03:40:25;;;;;;;7.55;2.63;;;-0.60;99.90;;;;;;4961333;29;20046;-67
2021/04/25 03:42:52;;;;;;;8.85;2.65;;;-0.60;99.90;;;;;;4960923;29;20027;-67
2021/04/25 03:45:20;;;;;;;8.85;2.90;;;-0.70;99.90;;;;;;4961318;29;20032;-67
2021/04/25 03:47:51;;;;;;;6.03;2.78;;;-0.70;99.90;;;;;;4944649;29;20375;-67
2021/04/25 03:50:21;;;;;;;10.02;3.33;;;-0.70;99.90;;;;;;4962282;28;20019;-67
2021/04/25 03:52:48;;;;;;;10.57;2.88;;;-0.70;99.90;;;;;;4944458;29;20451;-67
2021/04/25 03:55:17;;;;;;;10.75;2.63;;;-0.70;99.90;;;;;;4962048;29;20026;-67
2021/04/25 03:57:45;;;;;;;7.05;2.58;;;-0.70;99.90;;;;;;4961370;29;20466;-67
2021/04/25 04:00:15;;;;;;;11.15;3.15;;;-0.70;99.90;;;;;;4961676;29;20034;-67
2021/04/25 04:02:43;;;;;;;8.70;2.60;;;-0.70;99.90;;;;;;4961422;29;20027;-67
2021/04/25 04:05:12;;;;;;;4.85;2.03;;;-0.60;99.90;;;;;;4961242;28;20051;-68
2021/04/25 04:07:40;;;;;;;6.68;2.17;;;-0.60;99.90;;;;;;4943391;29;20058;-67
2021/04/25 04:10:08;;;;;;;7.57;2.33;;;-0.50;99.90;;;;;;4960551;29;20110;-67
2021/04/25 04:12:36;;;;;;;8.90;2.80;;;-0.50;99.90;;;;;;4960712;29;20031;-68
2021/04/25 04:15:05;;;;;;;8.27;2.90;;;-0.30;99.90;;;;;;4960580;29;20408;-68
2021/04/25 04:17:32;;;;;;;11.85;3.42;;;-0.30;99.90;;;;;;4960829;29;20023;-68
2021/04/25 04:20:00;;;;;;;7.25;3.08;;;-0.10;99.90;;;;;;4960335;28;20015;-68
2021/04/25 04:22:27;;;;;;;6.43;2.10;;;0.00;99.90;;;;;;4960146;29;20026;-68
2021/04/25 04:24:55;;;;;;;5.95;2.50;;;0.10;99.90;;;;;;4960670;29;20054;-68
2021/04/25 04:27:23;;;;;;;9.13;2.70;;;0.20;99.90;;;;;;4959173;28;20027;-68
2021/04/25 04:29:51;;;;;;;6.22;2.15;;;0.30;99.90;;;;;;4961050;29;20074;-68
2021/04/25 04:32:20;;;;;;;7.22;2.72;;;0.40;99.90;;;;;;4960792;29;20031;-68
2021/04/25 04:34:48;;;;;;;10.52;2.60;;;0.40;99.90;;;;;;4961411;29;20419;-67
2021/04/25 04:37:15;;;;;;;6.97;2.78;;;0.50;99.90;;;;;;4960720;28;20035;-68
2021/04/25 04:39:43;;;;;;;8.18;2.83;;;0.50;99.90;;;;;;4943908;29;20035;-68
2021/04/25 04:42:11;;;;;;;7.90;3.00;;;0.50;99.90;;;;;;4960712;29;20408;-68
2021/04/25 04:44:38;;;;;;;7.70;2.45;;;0.50;99.90;;;;;;4961215;29;20324;-68
2021/04/25 04:47:06;;;;;;;8.68;2.45;;;0.60;99.90;;;;;;4961093;29;20031;-68
2021/04/25 04:49:35;;;;;;;9.15;2.88;;;0.60;99.90;;;;;;4959926;29;20029;-68
2021/04/25 04:52:03;;;;;;;8.82;2.25;;;0.70;99.90;;;;;;4959358;28;20027;-68
2021/04/25 04:54:31;;;;;;;6.32;3.03;;;0.80;99.90;;;;;;4959600;29;20316;-68
2021/04/25 04:56:58;;;;;;;10.48;2.50;;;0.90;99.90;;;;;;4959495;29;20019;-68
2021/04/25 04:59:26;;;;;;;7.30;3.10;;;1.00;99.90;;;;;;4959279;29;20130;-68
2021/04/25 05:01:53;;;;;;;8.63;3.08;;;1.00;99.90;;;;;;4959433;29;20324;-67
2021/04/25 05:04:21;;;;;;;11.82;2.90;;;1.10;99.90;;;;;;4959520;29;20068;-68
2021/04/25 05:06:49;;;;;;;6.82;2.47;;;1.20;99.90;;;;;;4959241;28;20023;-68
2021/04/25 05:09:16;;;;;;;6.95;2.95;;;1.30;99.90;;;;;;4959726;29;20034;-68
2021/04/25 05:11:44;;;;;;;8.32;3.20;;;1.30;99.90;;;;;;4959909;29;20446;-68
2021/04/25 05:14:12;;;;;;;7.55;2.70;;;1.40;99.90;;;;;;4961007;29;20027;-68
2021/04/25 05:16:40;;;;;;;8.45;2.70;;;1.50;99.90;;;;;;4960594;29;20106;-68
2021/04/25 05:19:08;;;;;;;12.93;3.15;;;1.60;99.90;;;;;;4960084;29;20027;-68
2021/04/25 05:21:36;;;;;;;7.88;3.05;;;1.60;99.90;;;;;;4959901;28;20326;-68
2021/04/25 05:24:04;;;;;;;9.45;2.72;;;1.70;99.90;;;;;;4960657;29;20285;-68
2021/04/25 05:26:31;;;;;;;10.05;2.70;;;1.80;99.90;;;;;;4942819;29;20023;-68
2021/04/25 05:28:59;;;;;;;11.88;3.10;;;1.90;99.90;;;;;;4942050;29;20023;-67
2021/04/25 05:31:27;;;;;;;9.15;2.85;;;2.00;99.90;;;;;;4959324;29;20062;-67
2021/04/25 05:33:55;;;;;;;10.13;3.40;;;2.10;99.90;;;;;;4959567;29;20031;-67
2021/04/25 05:36:23;;;;;;;13.05;3.00;;;2.20;99.90;;;;;;4959312;28;20412;-67
2021/04/25 05:38:51;;;;;;;9.50;3.28;;;2.30;99.90;;;;;;4959041;28;20030;-67
2021/04/25 05:41:20;;;;;;;16.02;4.00;;;2.40;99.90;;;;;;4958683;29;20023;-68
2021/04/25 05:43:47;;;;;;;10.65;4.15;;;2.60;99.90;;;;;;4958752;29;20442;-67
2021/04/25 05:46:14;;;;;;;12.63;3.78;;;2.70;99.90;;;;;;4959196;29;20023;-67
2021/04/25 05:48:48;;;;;;;14.35;4.70;;;2.80;99.90;;;;;;4941616;29;20126;-67
2021/04/25 05:51:17;;;;;;;12.18;4.80;;;2.90;99.90;;;;;;4959507;28;20364;-67
2021/04/25 05:53:44;;;;;;;10.38;4.45;;;3.10;99.90;;;;;;4959643;29;20023;-68
2021/04/25 05:56:12;;;;;;;12.43;5.15;;;3.20;99.90;;;;;;4942389;29;20050;-68
2021/04/25 05:58:40;;;;;;;15.00;5.32;;;3.40;99.90;;;;;;4942280;29;20051;-69
2021/04/25 06:01:09;;;;;;;15.50;5.90;;;3.50;99.90;;;;;;4959641;29;20027;-70
2021/04/25 06:03:37;;;;;;;10.65;4.88;;;3.70;99.90;;;;;;4960027;29;20023;-70
2021/04/25 06:06:06;;;;;;;9.88;4.50;;;3.80;99.90;;;;;;4959899;28;20435;-70
2021/04/25 06:08:33;;;;;;;6.90;3.92;;;3.90;99.90;;;;;;4959680;29;20070;-70
2021/04/25 06:11:01;;;;;;;7.53;3.40;;;4.00;99.90;;;;;;4958760;29;20074;-70
2021/04/25 06:13:29;;;;;;;10.57;4.15;;;4.10;99.90;;;;;;4941263;29;20047;-70
2021/04/25 06:15:56;;;;;;;10.85;4.05;;;4.20;99.90;;;;;;4958390;29;20036;-70
2021/04/25 06:18:25;;;;;;;10.55;3.55;;;4.30;99.90;;;;;;4958591;29;20029;-70
2021/04/25 06:20:53;;;;;;;10.05;3.78;;;4.40;99.90;;;;;;4958451;28;20027;-70
2021/04/25 06:23:21;;;;;;;9.55;4.10;;;4.40;99.80;;;;;;4958468;29;20023;-71
2021/04/25 06:25:49;;;;;;;10.55;3.78;;;4.50;99.70;;;;;;4958239;29;20027;-70
2021/04/25 06:28:17;;;;;;;5.68;3.08;;;4.60;99.70;;;;;;4958434;29;20490;-68
2021/04/25 06:30:44;;;;;;;9.38;3.38;;;4.70;99.20;;;;;;4959199;29;20368;-68
2021/04/25 06:33:13;;;;;;;4.05;2.53;;;4.80;99.10;;;;;;4959292;29;20034;-68
2021/04/25 06:35:41;;;;;;;8.25;3.17;;;4.90;98.10;;;;;;4959163;28;20417;-68
2021/04/25 06:38:08;;;;;;;5.43;2.35;;;4.90;97.60;;;;;;4942060;29;20038;-68
2021/04/25 06:40:36;;;;;;;5.75;2.80;;;5.10;96.90;;;;;;4942120;29;20032;-68
2021/04/25 06:43:05;;;;;;;6.47;2.30;;;5.10;96.50;;;;;;4959185;29;20309;-68
2021/04/25 06:45:32;;;;;;;7.45;2.05;;;5.10;96.30;;;;;;4959438;29;20027;-69
2021/04/25 06:48:00;;;;;;;7.57;2.60;;;5.20;96.50;;;;;;4959360;29;20032;-68
2021/04/25 06:50:28;;;;;;;6.13;2.53;;;5.20;96.00;;;;;;4959080;28;20077;-68
2021/04/25 06:52:56;;;;;;;5.10;2.10;;;5.20;95.70;;;;;;4962285;29;20027;-68
2021/04/25 06:55:25;;;;;;;13.80;3.45;;;5.30;95.60;;;;;;4962032;29;20020;-69
2021/04/25 06:57:53;;;;;;;6.22;2.30;;;5.40;95.40;;;;;;4961497;29;20054;-69
2021/04/25 07:00:23;;;;;;;8.48;3.03;;;5.40;95.40;;;;;;4961628;29;20098;-70
2021/04/25 07:02:53;;;;;;;8.95;2.88;;;5.60;95.60;;;;;;4962260;29;20031;-71
2021/04/25 07:05:21;;;;;;;5.97;1.85;;;5.70;94.80;;;;;;4944621;29;20027;-71
2021/04/25 07:07:49;;;;;;;7.00;2.38;;;5.70;94.70;;;;;;4961583;29;20027;-70
2021/04/25 07:10:18;;;;;;;7.13;1.52;;;5.80;94.30;;;;;;4961460;29;20027;-69
2021/04/25 07:12:46;;;;;;;8.27;2.42;;;5.90;94.40;;;;;;4962874;29;20134;-69
2021/04/25 07:15:15;;;;;;;7.22;2.03;;;6.00;94.10;;;;;;4962210;29;20098;-70
2021/04/25 07:17:43;;;;;;;5.30;1.63;;;6.10;93.20;;;;;;4962846;29;20019;-68
2021/04/25 07:20:11;;;;;;;6.00;1.85;;;6.00;93.00;;;;;;4945133;28;20032;-69
2021/04/25 07:22:39;;;;;;;9.00;1.80;;;6.10;93.10;;;;;;4962813;29;20066;-69
2021/04/25 07:25:09;;;;;;;7.82;1.80;;;6.10;92.90;;;;;;4962769;29;20356;-69
2021/04/25 07:27:36;;;;;;;7.75;1.60;;;6.20;92.00;;;;;;4945224;29;20035;-70
2021/04/25 07:30:06;;;;;;;4.72;1.30;;;6.20;91.80;;;;;;4961957;29;20031;-70
2021/04/25 07:32:33;;;;;;;5.57;1.80;;;6.20;91.90;;;;;;4943904;29;20419;-71
2021/04/25 07:35:01;;;;;;;5.10;2.03;;;6.30;91.80;;;;;;4944239;28;20039;-71
2021/04/25 07:37:29;;;;;;;4.00;1.77;;;6.40;90.80;;;;;;4944059;29;20024;-69
2021/04/25 07:39:58;;;;;;;5.13;1.70;;;6.40;90.90;;;;;;4961602;29;20020;-69
2021/04/25 07:42:26;;;;;;;5.10;1.50;;;6.40;90.40;;;;;;4961233;29;20158;-69
2021/04/25 07:44:55;;;;;;;6.53;1.23;;;6.50;90.00;;;;;;4943950;29;20038;-70
2021/04/25 07:47:23;;;;;;;11.73;1.75;;;6.60;89.00;;;;;;4960968;29;20126;-69
2021/04/25 07:49:50;;;;;;;7.75;1.30;;;6.60;88.10;;;;;;4961094;29;20034;-69
2021/04/25 07:52:18;;;;;;;4.93;1.63;;;6.60;88.00;;;;;;4961276;28;20368;-69
2021/04/25 07:54:46;;;;;;;4.55;0.93;;;6.70;87.90;;;;;;4962053;29;20027;-69
2021/04/25 07:57:15;;;;;;;8.32;1.45;;;6.80;85.40;;;;;;4961797;29;20320;-70
2021/04/25 07:59:43;;;;;;;7.50;2.47;;;6.80;84.60;;;;;;4961795;29;20031;-69
2021/04/25 08:02:11;;;;;;;4.35;1.73;;;6.90;83.40;;;;;;4961194;28;20102;-69
2021/04/25 08:04:39;;;;;;;4.30;1.70;;;6.80;83.10;;;;;;4961564;29;20062;-68
2021/04/25 08:07:07;;;;;;;12.57;2.13;;;6.90;83.10;;;;;;4961430;28;20466;-69
2021/04/25 08:09:34;;;;;;;8.70;2.80;;;6.90;82.70;;;;;;4961600;29;20323;-68
2021/04/25 08:12:04;;;;;;;5.05;1.55;;;6.90;82.00;;;;;;4943483;29;20443;-68
2021/04/25 08:14:32;;;;;;;6.25;1.40;;;7.00;82.30;;;;;;4943511;29;20099;-69
2021/04/25 08:16:59;;;;;;;2.65;1.30;;;7.00;81.90;;;;;;4960485;29;20451;-69
2021/04/25 08:19:27;;;;;;;4.18;1.15;;;7.00;82.10;;;;;;4961036;29;20174;-68
2021/04/25 08:21:55;;;;;;;9.75;1.73;;;6.90;81.80;;;;;;4960922;28;20027;-68
2021/04/25 08:24:23;;;;;;;4.57;1.10;;;6.90;82.20;;;;;;4960635;29;20023;-69
2021/04/25 08:26:52;;;;;;;5.43;1.00;;;7.00;82.60;;;;;;4960426;29;20020;-69
2021/04/25 08:29:19;;;;;;;9.25;2.47;;;7.00;82.40;;;;;;4960580;29;20031;-69
2021/04/25 08:31:47;;;;;;;8.25;1.30;;;7.10;81.80;;;;;;4960693;29;20067;-69
2021/04/25 08:34:15;;;;;;;6.88;1.48;;;7.20;82.00;;;;;;4961108;29;20026;-69
2021/04/25 08:36:43;;;;;;;7.55;1.52;;;7.10;81.40;;;;;;4960975;28;20023;-69
2021/04/25 08:39:10;;;;;;;3.33;1.48;;;7.20;81.90;;;;;;4961421;29;20435;-69
2021/04/25 08:41:39;;;;;;;3.38;1.30;;;7.30;80.20;;;;;;4961413;29;20034;-69
2021/04/25 08:44:08;;;;;;;5.78;1.25;;;7.30;78.50;;;;;;4960624;29;20027;-69
2021/04/25 08:46:40;;;;;;;7.07;1.70;;;7.30;79.40;;;;;;4961512;29;20308;-68
2021/04/25 08:49:08;;;;;;;10.60;2.38;;;7.40;79.10;;;;;;4961204;29;20027;-71
2021/04/25 08:51:36;;;;;;;4.90;1.13;;;7.50;77.20;;;;;;4960086;28;20035;-70
2021/04/25 08:54:03;;;;;;;12.48;1.50;;;7.60;77.10;;;;;;4942833;29;20023;-70
2021/04/25 08:56:31;;;;;;;2.90;0.90;;;7.70;76.70;;;;;;4960091;29;20026;-69
2021/04/25 08:58:59;;;;;;;4.88;1.27;;;7.80;77.30;;;;;;4959551;29;20396;-69
2021/04/25 09:01:27;;;;;;;3.22;1.00;;;8.00;75.80;;;;;;4959971;29;20454;-69
2021/04/25 09:04:06;;;;;;;8.38;1.15;;;8.10;75.80;;;;;;4942574;29;20031;-69
2021/04/25 09:06:34;;;;;;;7.00;0.98;;;8.20;75.00;;;;;;4959486;28;20031;-69
2021/04/25 09:09:07;;;;;;;8.50;1.50;;;8.30;73.90;;;;;;4959832;29;20028;-69
2021/04/25 09:11:40;;;;;;;5.30;1.85;;;8.30;74.50;;;;;;4942041;29;20039;-68
2021/04/25 09:14:22;;;;;;;4.75;1.02;;;8.40;74.40;;;;;;4960038;28;20320;-69
2021/04/25 09:17:04;;;;;;;10.00;2.83;;;8.40;73.40;;;;;;4960025;29;20055;-69
2021/04/25 09:20:07;;;;;;;7.55;1.90;;;8.40;73.30;;;;;;4943094;29;20023;-69
2021/04/25 09:22:53;;;;;;;5.82;0.85;;;8.50;73.70;;;;;;4901303;29;20044;-70
2021/04/25 09:25:20;;;;;;;5.00;1.35;;;8.50;72.70;;;;;;4956234;29;20041;-69
2021/04/25 09:27:51;;;;;;;2.85;0.90;;;8.60;71.70;;;;;;4959869;29;20415;-69
2021/04/25 09:30:26;;;;;;;6.78;1.33;;;8.60;70.70;;;;;;4959806;29;20332;-69
2021/04/25 09:33:11;;;;;;;5.20;1.15;;;8.60;71.10;;;;;;4959195;29;20027;-69
2021/04/25 09:35:40;;;;;;;6.18;1.55;;;8.70;69.90;;;;;;4959388;28;20372;-70
2021/04/25 09:38:13;;;;;;;3.47;1.38;;;8.80;68.40;;;;;;4959273;29;20031;-69
2021/04/25 09:40:49;;;;;;;3.75;1.20;;;8.90;67.60;;;;;;4958815;29;20023;-69
2021/04/25 09:43:19;;;;;;;4.57;1.15;;;8.90;68.10;;;;;;4958707;29;20034;-69
2021/04/25 09:45:57;;;;;;;4.65;1.55;;;9.10;68.40;;;;;;4958905;29;20023;-69
2021/04/25 09:48:32;;;;;;;3.88;1.13;;;9.20;68.50;;;;;;4958580;29;20070;-69
2021/04/25 09:51:10;;;;;;;5.43;2.35;;;9.40;68.80;;;;;;4958932;28;20035;-68
2021/04/25 09:53:43;;;;;;;5.63;1.50;;;9.50;65.50;;;;;;4959420;29;20379;-69
2021/04/25 09:56:11;;;;;;;8.40;1.55;;;9.50;65.20;;;;;;4959421;29;20024;-69
2021/04/25 09:58:56;;;;;;;4.55;1.42;;;9.50;65.00;;;;;;4959322;29;20515;-68
2021/04/25 10:01:32;;;;;;;13.15;1.67;;;9.50;65.70;;;;;;4959887;29;20023;-69
2021/04/25 10:04:01;;;;;;;7.65;1.45;;;9.50;64.70;;;;;;4959364;29;20027;-69
2021/04/25 10:06:48;;;;;;;3.92;1.17;;;9.50;64.70;;;;;;4959391;28;20428;-69
2021/04/25 10:09:17;;;;;;;7.00;1.00;;;9.60;65.20;;;;;;4959784;29;20400;-69
2021/04/25 10:11:45;;;;;;;10.75;2.80;;;9.70;64.30;;;;;;4943061;29;20039;-69
2021/04/25 10:14:14;;;;;;;3.00;1.40;;;9.80;65.30;;;;;;4958248;29;20055;-70
2021/04/25 10:16:43;;;;;;;8.20;2.17;;;10.00;64.40;;;;;;4958195;29;20037;-69
2021/04/25 10:19:14;;;;;;;4.82;1.20;;;10.10;63.50;;;;;;4941462;29;20023;-69
2021/04/25 10:21:47;;;;;;;7.75;1.48;;;10.30;62.20;;;;;;4958614;28;20023;-71
2021/04/25 10:24:20;;;;;;;6.70;2.03;;;10.30;61.10;;;;;;4959238;28;20035;-70
2021/04/25 10:26:52;;;;;;;8.52;2.03;;;10.50;61.50;;;;;;4962630;29;20031;-71
2021/04/25 10:29:29;;;;;;;8.80;1.88;;;10.70;62.00;;;;;;4962729;29;20074;-69
2021/04/25 10:32:03;;;;;;;5.63;1.33;;;11.10;61.30;;;;;;4962248;29;20028;-69
2021/04/25 10:34:32;;;;;;;7.38;2.22;;;11.40;59.70;;;;;;4962515;29;20074;-69
2021/04/25 10:37:02;;;;;;;6.05;1.58;;;11.50;58.10;;;;;;4962858;28;20015;-70
2021/04/25 10:39:52;;;;;;;4.25;1.85;;;11.60;58.20;;;;;;4962884;29;20074;-71
2021/04/25 10:42:21;;;;;;;6.13;1.15;;;11.80;58.40;;;;;;4963298;29;20032;-69
2021/04/25 10:45:05;;;;;;;7.43;1.65;;;11.80;56.00;;;;;;4962827;29;20027;-68
2021/04/25 10:47:41;;;;;;;5.30;1.23;;;11.90;56.40;;;;;;4963391;29;20364;-72
2021/04/25 10:50:14;;;;;;;4.97;1.13;;;12.00;55.80;;;;;;4963290;28;20085;-69
2021/04/25 10:52:47;;;;;;;6.20;1.10;;;11.90;54.90;;;;;;4963100;29;20028;-68
2021/04/25 10:55:16;;;;;;;6.85;1.95;;;11.70;55.90;;;;;;4961766;29;20016;-69
2021/04/25 10:58:00;;;;;;;7.80;1.55;;;11.70;56.30;;;;;;4961926;29;20043;-70
2021/04/25 11:00:38;;;;;;;5.97;1.20;;;11.70;57.60;;;;;;4961831;29;20027;-70
2021/04/25 11:03:08;;;;;;;5.95;1.20;;;11.80;58.30;;;;;;4962122;29;20031;-70
2021/04/25 11:05:40;;;;;;;3.92;1.67;;;11.80;56.70;;;;;;4944450;29;20039;-70
2021/04/25 11:08:30;;;;;;;2.85;1.40;;;11.80;56.70;;;;;;4962112;29;20114;-70
2021/04/25 11:11:05;;;;;;;5.28;1.38;;;11.70;57.10;;;;;;4944447;29;20027;-70
2021/04/25 11:16:18;;;;;;;;;;;11.30;55.50;;;;;;4961996;29;20043;-70
2021/04/25 11:19:08;;;;;;;7.60;3.30;;;11.10;55.60;;;;;;5097618;22;20304;-70
2021/04/25 11:21:50;;;;;;;6.70;1.65;;;11.10;56.80;;;;;;5042645;28;20028;-70
2021/04/25 11:24:18;;;;;;;2.78;1.20;;;11.30;55.40;;;;;;5059471;28;20420;-71
2021/04/25 11:26:56;;;;;;;2.65;1.40;;;11.40;55.20;;;;;;5059728;28;20028;-71
2021/04/25 11:29:30;;;;;;;4.97;1.50;;;11.60;55.60;;;;;;5059513;28;20025;-70
2021/04/25 11:32:02;;;;;;;8.00;1.30;;;11.80;54.80;;;;;;5042622;28;20025;-71
2021/04/25 11:34:33;;;;;;;4.97;1.15;;;11.90;55.10;;;;;;5060255;28;20021;-71
2021/04/25 11:37:03;;;;;;;7.50;1.70;;;12.10;54.90;;;;;;5059365;28;20048;-71
2021/04/25 11:39:40;;;;;;;5.65;1.65;;;12.20;55.10;;;;;;5060341;28;20018;-71
2021/04/25 11:42:10;;;;;;;3.13;1.30;;;12.40;53.60;;;;;;5060792;28;20055;-71
2021/04/25 11:44:40;;;;;;;6.53;1.23;;;12.20;53.30;;;;;;5060065;28;20421;-71
2021/04/25 11:47:10;;;;;;;7.30;2.13;;;11.90;53.30;;;;;;5060233;28;20029;-70
2021/04/25 11:49:43;;;;;;;7.00;1.20;;;11.80;54.40;;;;;;5041495;28;20025;-71
2021/04/25 11:52:16;;;;;;;4.93;1.35;;;11.80;54.00;;;;;;5041205;28;20028;-71
2021/04/25 11:54:49;;;;;;;4.72;1.70;;;12.00;54.70;;;;;;5058898;28;20421;-71
2021/04/25 11:57:22;;;;;;;6.50;1.10;;;12.10;53.90;;;;;;5059019;28;20025;-70
2021/04/25 11:59:57;;;;;;;3.88;1.52;;;12.20;53.00;;;;;;5058840;28;20017;-70
2021/04/25 12:02:29;;;;;;;3.53;0.88;;;12.20;52.90;;;;;;5059405;28;20036;-71
2021/04/25 12:04:59;;;;;;;6.35;1.27;;;12.40;53.30;;;;;;5058608;28;20025;-71
2021/04/25 12:07:45;;;;;;;8.48;1.95;;;12.40;53.00;;;;;;5059169;28;20436;-71
2021/04/25 12:10:14;;;;;;;3.97;1.15;;;12.40;53.30;;;;;;5059407;28;20029;-71
2021/04/25 12:13:04;;;;;;;5.82;1.70;;;12.30;52.20;;;;;;5041727;28;20048;-70
2021/04/25 12:15:53;;;;;;;8.32;1.65;;;12.20;53.60;;;;;;5059695;28;20032;-70
2021/04/25 12:18:26;;;;;;;6.03;2.08;;;12.20;52.80;;;;;;5059547;28;20048;-71
2021/04/25 12:20:57;;;;;;;5.70;1.63;;;12.30;53.30;;;;;;5059289;28;20029;-70
2021/04/25 12:23:27;;;;;;;3.47;1.10;;;12.70;53.20;;;;;;5059424;28;20044;-70
2021/04/25 12:25:56;;;;;;;4.55;1.58;;;12.90;51.70;;;;;;5041513;28;20417;-71
2021/04/25 12:28:46;;;;;;;5.38;1.58;;;13.10;52.00;;;;;;5059473;28;20032;-71
2021/04/25 12:31:16;;;;;;;4.60;1.30;;;13.20;50.90;;;;;;5058588;28;20043;-71
2021/04/25 12:33:46;;;;;;;6.50;1.20;;;13.30;50.80;;;;;;5040421;28;20025;-71
2021/04/25 12:36:16;;;;;;;7.07;2.08;;;13.30;50.00;;;;;;5040339;28;20025;-71
2021/04/25 12:38:56;;;;;;;4.32;1.33;;;13.30;50.40;;;;;;5058488;28;20138;-71
2021/04/25 12:41:24;;;;;;;6.85;1.50;;;13.30;50.30;;;;;;5058261;28;20036;-71
2021/04/25 12:43:54;;;;;;;3.55;1.90;;;13.30;50.20;;;;;;5040410;28;20074;-71
2021/04/25 12:46:26;;;;;;;3.38;1.25;;;13.40;50.20;;;;;;5058213;28;20409;-71
2021/04/25 12:48:56;;;;;;;5.50;1.10;;;13.30;50.40;;;;;;5056875;28;20356;-71
2021/04/25 12:51:32;;;;;;;9.55;1.33;;;13.40;50.80;;;;;;5058794;28;20025;-71
2021/04/25 12:54:03;;;;;;;7.70;1.88;;;13.60;50.30;;;;;;5041073;28;20021;-71
2021/04/25 12:56:40;;;;;;;4.35;1.38;;;14.20;49.90;;;;;;5059444;28;20017;-71
2021/04/25 12:59:19;;;;;;;3.10;1.48;;;14.70;49.00;;;;;;5040984;28;20332;-71
2021/04/25 13:01:59;;;;;;;7.43;1.45;;;15.10;48.10;;;;;;5059705;28;20360;-71
2021/04/25 13:04:45;;;;;;;6.20;2.47;;;15.30;46.40;;;;;;5059057;28;20032;-70
2021/04/25 13:07:30;;;;;;;6.00;1.98;;;15.20;45.80;;;;;;5040713;28;20025;-71
2021/04/25 13:10:05;;;;;;;4.35;1.38;;;15.00;46.30;;;;;;5058425;28;20094;-71